createdAt,value
2022-08-22T00:02:44.326Z,101532.88
2022-08-22T00:02:56.264Z,101487.09
2022-08-22T00:03:10.729Z,101528.19
2022-08-22T00:03:12.287Z,101540.44
2022-08-22T00:03:17.558Z,101546.19
2022-08-22T00:06:27.423Z,101553.25
2022-08-22T00:09:39.195Z,101546.19
2022-08-22T00:12:50.591Z,101549.81
2022-08-22T00:15:59.366Z,101549.81
2022-08-22T00:19:14.647Z,101545.31
2022-08-22T00:22:23.369Z,101543.59
2022-08-22T00:25:38.243Z,101544.44
2022-08-22T00:28:45.359Z,101550.69
2022-08-22T00:31:51.705Z,101549.81
2022-08-22T00:35:02.650Z,101542.72
2022-08-22T00:38:11.402Z,101547.22
2022-08-22T00:41:29.493Z,101545.47
2022-08-22T00:45:02.018Z,101543.75
2022-08-22T00:48:30.504Z,101550.03
2022-08-22T00:52:00.385Z,101540.28
2022-08-22T00:55:15.041Z,101536.72
2022-08-22T00:58:40.510Z,101534.94
2022-08-22T01:01:52.377Z,101542.97
2022-08-22T01:05:10.960Z,101543.88
2022-08-22T01:08:28.633Z,101541.22
2022-08-22T01:11:53.986Z,101542.09
2022-08-22T01:15:01.533Z,101538.53
2022-08-22T01:18:28.794Z,101543.88
2022-08-22T01:22:01.141Z,101546.56
2022-08-22T01:25:41.110Z,101557.25
2022-08-22T01:29:27.699Z,101557.34
2022-08-22T01:33:10.382Z,101560.03
2022-08-22T01:36:47.585Z,101555.53
2022-08-22T01:40:19.383Z,101566.25
2022-08-22T01:43:58.549Z,101561.78
2022-08-22T01:47:08.577Z,101569.81
2022-08-22T01:50:23.197Z,101568.94
2022-08-22T01:53:37.969Z,101572.53
2022-08-22T01:56:44.426Z,101569.00
2022-08-22T01:59:50.625Z,101569.06
2022-08-22T02:03:06.261Z,101567.34
2022-08-22T02:06:15.217Z,101567.41
2022-08-22T02:09:33.650Z,101565.59
2022-08-22T02:12:45.549Z,101563.00
2022-08-22T02:15:54.810Z,101556.78
2022-08-22T02:19:11.702Z,101561.25
2022-08-22T02:22:29.387Z,101565.75
2022-08-22T02:25:46.917Z,101559.53
2022-08-22T02:28:58.784Z,101561.31
2022-08-22T02:32:06.831Z,101565.75
2022-08-22T02:35:19.574Z,101564.88
2022-08-22T02:38:37.486Z,101564.88
2022-08-22T02:41:52.333Z,101563.09
2022-08-22T02:45:05.031Z,101571.13
2022-08-22T02:48:21.339Z,101557.84
2022-08-22T02:51:40.450Z,101563.19
2022-08-22T02:54:49.812Z,101560.50
2022-08-22T02:58:04.062Z,101556.13
2022-08-22T03:01:41.155Z,101563.28
2022-08-22T03:04:52.994Z,101549.97
2022-08-22T03:08:03.625Z,101562.41
2022-08-22T03:11:20.366Z,101566.03
2022-08-22T03:14:32.978Z,101558.94
2022-08-22T03:17:46.982Z,101556.25
2022-08-22T03:20:55.006Z,101557.13
2022-08-22T03:24:06.606Z,101558.94
2022-08-22T03:27:32.150Z,101551.84
2022-08-22T03:30:42.249Z,101540.28
2022-08-22T03:33:46.506Z,101550.13
2022-08-22T03:37:02.971Z,101552.88
2022-08-22T03:40:22.094Z,101557.34
2022-08-22T03:43:52.778Z,101555.59
2022-08-22T03:47:28.527Z,101548.53
2022-08-22T03:51:01.917Z,101558.38
2022-08-22T03:54:43.701Z,101554.03
2022-08-22T03:58:28.393Z,101563.00
2022-08-22T04:01:57.367Z,101566.53
2022-08-22T04:05:29.922Z,101561.25
2022-08-22T04:09:13.262Z,101571.03
2022-08-22T04:12:40.587Z,101580.78
2022-08-22T04:16:13.230Z,101572.75
2022-08-22T04:19:33.450Z,101576.38
2022-08-22T04:23:06.201Z,101588.81
2022-08-22T04:26:12.999Z,101586.22
2022-08-22T04:29:23.278Z,101594.22
2022-08-22T04:32:36.109Z,101591.63
2022-08-22T04:35:44.162Z,101597.00
2022-08-22T04:38:54.007Z,101602.34
2022-08-22T04:42:28.825Z,101594.38
2022-08-22T04:45:33.725Z,101604.13
2022-08-22T04:48:41.510Z,101603.34
2022-08-22T04:51:50.379Z,101605.94
2022-08-22T04:55:04.333Z,101606.91
2022-08-22T04:58:23.945Z,101616.63
2022-08-22T05:01:39.046Z,101613.97
2022-08-22T05:04:46.986Z,101613.09
2022-08-22T05:07:54.053Z,101615.75
2022-08-22T05:11:01.338Z,101614.91
2022-08-22T05:14:08.313Z,101626.53
2022-08-22T05:17:16.965Z,101615.94
2022-08-22T05:20:24.025Z,101622.16
2022-08-22T05:23:30.556Z,101618.59
2022-08-22T05:26:40.104Z,101622.28
2022-08-22T05:29:49.138Z,101632.97
2022-08-22T05:32:56.422Z,101632.09
2022-08-22T05:36:05.462Z,101640.13
2022-08-22T05:39:14.590Z,101634.78
2022-08-22T05:42:26.329Z,101643.75
2022-08-22T05:45:30.273Z,101634.88
2022-08-22T05:48:38.894Z,101637.53
2022-08-22T05:51:51.538Z,101635.75
2022-08-22T05:54:59.112Z,101640.22
2022-08-22T05:58:30.857Z,101639.25
2022-08-22T06:01:39.385Z,101644.59
2022-08-22T06:04:51.835Z,101646.44
2022-08-22T06:08:02.098Z,101650.91
2022-08-22T06:11:13.210Z,101649.16
2022-08-22T06:14:29.326Z,101650.13
2022-08-22T06:17:36.808Z,101661.75
2022-08-22T06:20:45.169Z,101657.34
2022-08-22T06:23:51.691Z,101656.38
2022-08-22T06:27:00.675Z,101664.41
2022-08-22T06:30:07.377Z,101666.16
2022-08-22T06:33:17.357Z,101657.19
2022-08-22T06:36:33.996Z,101657.97
2022-08-22T06:39:40.172Z,101656.19
2022-08-22T06:42:47.107Z,101657.84
2022-08-22T06:45:53.257Z,101656.97
2022-08-22T06:48:57.506Z,101653.47
2022-08-22T06:52:08.880Z,101656.06
2022-08-22T06:55:12.410Z,101659.59
2022-08-22T06:58:18.732Z,101660.44
2022-08-22T07:01:26.864Z,101660.44
2022-08-22T07:04:31.429Z,101672.03
2022-08-22T07:07:37.528Z,101665.78
2022-08-22T07:10:42.658Z,101672.97
2022-08-22T07:13:54.581Z,101676.50
2022-08-22T07:17:02.913Z,101670.16
2022-08-22T07:20:24.027Z,101678.97
2022-08-22T07:23:33.712Z,101675.38
2022-08-22T07:26:48.397Z,101675.38
2022-08-22T07:29:59.609Z,101680.72
2022-08-22T07:33:26.820Z,101677.09
2022-08-22T07:36:39.798Z,101685.91
2022-08-22T07:39:51.333Z,101687.66
2022-08-22T07:43:03.015Z,101682.31
2022-08-22T07:46:18.442Z,101691.22
2022-08-22T07:49:26.602Z,101683.19
2022-08-22T07:52:35.281Z,101692.06
2022-08-22T07:55:42.211Z,101691.13
2022-08-22T07:58:56.983Z,101682.16
2022-08-22T08:02:01.885Z,101683.91
2022-08-22T08:05:07.251Z,101688.28
2022-08-22T08:08:16.434Z,101692.72
2022-08-22T08:11:21.995Z,101692.72
2022-08-22T08:14:26.498Z,101696.19
2022-08-22T08:17:34.309Z,101682.81
2022-08-22T08:20:39.297Z,101691.72
2022-08-22T08:23:47.315Z,101693.44
2022-08-22T08:27:12.254Z,101693.44
2022-08-22T08:30:19.084Z,101691.63
2022-08-22T08:33:28.281Z,101689.84
2022-08-22T08:36:41.583Z,101688.97
2022-08-22T08:39:50.665Z,101692.50
2022-08-22T08:43:28.235Z,101690.72
2022-08-22T08:47:11.093Z,101686.19
2022-08-22T08:50:43.282Z,101686.19
2022-08-22T08:54:14.838Z,101679.97
2022-08-22T08:57:29.545Z,101683.50
2022-08-22T09:00:54.779Z,101680.84
2022-08-22T09:04:22.173Z,101679.88
2022-08-22T09:07:57.823Z,101679.88
2022-08-22T09:11:28.264Z,101674.53
2022-08-22T09:15:14.169Z,101679.88
2022-08-22T09:18:42.997Z,101682.47
2022-08-22T09:22:19.636Z,101682.47
2022-08-22T09:25:38.559Z,101683.44
2022-08-22T09:28:54.486Z,101678.94
2022-08-22T09:32:13.045Z,101688.69
2022-08-22T09:35:25.941Z,101686.97
2022-08-22T09:38:49.515Z,101683.34
2022-08-22T09:42:00.870Z,101690.44
2022-08-22T09:45:45.443Z,101693.94
2022-08-22T09:49:02.297Z,101685.91
2022-08-22T09:52:33.125Z,101693.84
2022-08-22T09:55:46.669Z,101693.84
2022-08-22T09:59:02.858Z,101693.75
2022-08-22T10:02:20.364Z,101684.81
2022-08-22T10:05:40.437Z,101688.41
2022-08-22T10:08:57.044Z,101694.63
2022-08-22T10:12:05.061Z,101689.38
2022-08-22T10:15:21.983Z,101691.16
2022-08-22T10:18:36.709Z,101689.44
2022-08-22T10:22:18.271Z,101687.59
2022-08-22T10:25:32.943Z,101690.28
2022-08-22T10:28:48.222Z,101695.63
2022-08-22T10:31:58.947Z,101696.50
2022-08-22T10:35:14.530Z,101696.44
2022-08-22T10:38:25.179Z,101697.31
2022-08-22T10:41:33.912Z,101700.78
2022-08-22T10:44:44.235Z,101693.63
2022-08-22T10:48:30.146Z,101690.00
2022-08-22T10:51:40.710Z,101695.34
2022-08-22T10:54:49.343Z,101691.75
2022-08-22T10:58:06.238Z,101697.97
2022-08-22T11:01:37.645Z,101689.94
2022-08-22T11:04:54.199Z,101691.63
2022-08-22T11:08:16.720Z,101694.22
2022-08-22T11:11:32.549Z,101687.84
2022-08-22T11:15:10.629Z,101677.13
2022-08-22T11:18:21.859Z,101677.13
2022-08-22T11:21:32.846Z,101678.84
2022-08-22T11:25:12.154Z,101691.31
2022-08-22T11:28:32.069Z,101678.84
2022-08-22T11:31:51.918Z,101684.16
2022-08-22T11:35:00.226Z,101677.94
2022-08-22T11:38:11.103Z,101680.59
2022-08-22T11:41:20.870Z,101678.81
2022-08-22T11:44:31.233Z,101682.31
2022-08-22T11:47:46.161Z,101680.59
2022-08-22T11:50:55.561Z,101682.31
2022-08-22T11:54:08.906Z,101685.00
2022-08-22T11:57:18.252Z,101684.06
2022-08-22T12:00:40.179Z,101684.94
2022-08-22T12:03:58.907Z,101682.19
2022-08-22T12:07:13.548Z,101683.00
2022-08-22T12:10:19.104Z,101680.31
2022-08-22T12:13:49.278Z,101672.28
2022-08-22T12:17:09.017Z,101666.84
2022-08-22T12:20:37.982Z,101666.84
2022-08-22T12:24:19.239Z,101665.97
2022-08-22T12:27:48.151Z,101666.75
2022-08-22T12:31:05.350Z,101659.69
2022-08-22T12:34:15.915Z,101657.00
2022-08-22T12:37:27.830Z,101657.88
2022-08-22T12:40:51.958Z,101660.47
2022-08-22T12:44:02.282Z,101645.28
2022-08-22T12:47:26.493Z,101643.47
2022-08-22T12:50:42.283Z,101642.53
2022-08-22T12:54:08.486Z,101630.94
2022-08-22T12:57:23.788Z,101645.19
2022-08-22T13:00:34.619Z,101638.03
2022-08-22T13:03:49.978Z,101633.56
2022-08-22T13:07:00.298Z,101629.06
2022-08-22T13:10:22.574Z,101637.09
2022-08-22T13:13:36.559Z,101637.97
2022-08-22T13:16:48.934Z,101631.69
2022-08-22T13:20:10.633Z,101637.03
2022-08-22T13:23:19.269Z,101634.34
2022-08-22T13:26:33.669Z,101628.03
2022-08-22T13:29:43.797Z,101623.56
2022-08-22T13:32:49.930Z,101627.03
2022-08-22T13:36:01.511Z,101631.50
2022-08-22T13:39:08.305Z,101627.91
2022-08-22T13:42:27.723Z,101622.53
2022-08-22T13:45:36.461Z,101630.50
2022-08-22T13:48:49.847Z,101630.50
2022-08-22T13:52:02.024Z,101626.94
2022-08-22T13:55:13.708Z,101628.69
2022-08-22T13:58:26.342Z,101631.38
2022-08-22T14:01:45.073Z,101624.22
2022-08-22T14:04:52.878Z,101627.72
2022-08-22T14:08:12.799Z,101618.91
2022-08-22T14:11:28.912Z,101618.03
2022-08-22T14:14:34.882Z,101615.44
2022-08-22T14:17:43.095Z,101609.22
2022-08-22T14:20:47.743Z,101613.72
2022-08-22T14:23:54.762Z,101616.41
2022-08-22T14:27:05.120Z,101611.03
2022-08-22T14:30:16.065Z,101617.25
2022-08-22T14:33:23.102Z,101615.53
2022-08-22T14:36:31.180Z,101616.41
2022-08-22T14:39:42.846Z,101612.84
2022-08-22T14:42:52.933Z,101607.56
2022-08-22T14:46:02.001Z,101608.50
2022-08-22T14:49:29.750Z,101609.38
2022-08-22T14:52:40.552Z,101608.50
2022-08-22T14:55:56.479Z,101605.91
2022-08-22T14:59:03.494Z,101616.63
2022-08-22T15:02:10.943Z,101614.88
2022-08-22T15:05:18.279Z,101620.22
2022-08-22T15:08:24.404Z,101616.72
2022-08-22T15:11:33.422Z,101619.38
2022-08-22T15:14:52.246Z,101617.56
2022-08-22T15:17:56.427Z,101619.38
2022-08-22T15:21:06.765Z,101612.28
2022-08-22T15:24:14.665Z,101613.16
2022-08-22T15:27:21.394Z,101612.28
2022-08-22T15:30:44.216Z,101615.88
2022-08-22T15:33:49.508Z,101621.25
2022-08-22T15:37:27.770Z,101615.88
2022-08-22T15:40:40.513Z,101615.09
2022-08-22T15:43:50.171Z,101619.53
2022-08-22T15:47:05.810Z,101609.75
2022-08-22T15:50:29.027Z,101617.78
2022-08-22T15:53:53.439Z,101605.25
2022-08-22T15:57:18.434Z,101601.72
2022-08-22T16:00:32.550Z,101600.88
2022-08-22T16:03:39.835Z,101603.47
2022-08-22T16:06:48.246Z,101610.63
2022-08-22T16:09:56.995Z,101602.66
2022-08-22T16:13:26.091Z,101610.63
2022-08-22T16:16:56.714Z,101618.72
2022-08-22T16:20:33.183Z,101616.06
2022-08-22T16:24:09.341Z,101609.81
2022-08-22T16:27:20.182Z,101620.53
2022-08-22T16:30:38.347Z,101625.88
2022-08-22T16:33:45.019Z,101628.66
2022-08-22T16:36:50.954Z,101630.38
2022-08-22T16:40:14.713Z,101628.66
2022-08-22T16:43:20.370Z,101633.03
2022-08-22T16:46:33.309Z,101639.34
2022-08-22T16:49:56.694Z,101640.22
2022-08-22T16:53:03.609Z,101639.34
2022-08-22T16:56:20.146Z,101640.22
2022-08-22T16:59:44.613Z,101649.19
2022-08-22T17:03:08.350Z,101644.78
2022-08-22T17:06:32.303Z,101651.94
2022-08-22T17:09:51.425Z,101655.56
2022-08-22T17:13:08.858Z,101650.28
2022-08-22T17:16:27.630Z,101649.50
2022-08-22T17:19:45.670Z,101651.28
2022-08-22T17:22:57.982Z,101657.59
2022-08-22T17:26:13.187Z,101657.59
2022-08-22T17:29:28.464Z,101658.44
2022-08-22T17:32:42.559Z,101654.06
2022-08-22T17:35:58.225Z,101653.09
2022-08-22T17:39:14.866Z,101656.56
2022-08-22T17:42:50.797Z,101653.84
2022-08-22T17:46:13.379Z,101661.78
2022-08-22T17:49:36.493Z,101662.66
2022-08-22T17:52:49.534Z,101655.50
2022-08-22T17:56:01.640Z,101666.25
2022-08-22T17:59:10.498Z,101668.09
2022-08-22T18:02:18.818Z,101670.78
2022-08-22T18:05:25.542Z,101665.47
2022-08-22T18:09:13.007Z,101674.38
2022-08-22T18:12:06.186Z,101672.63
2022-08-22T18:15:20.778Z,101672.63
2022-08-22T18:18:31.364Z,101670.81
2022-08-22T18:21:38.565Z,101678.84
2022-08-22T18:24:51.274Z,101682.41
2022-08-22T18:27:59.301Z,101693.03
2022-08-22T18:31:07.358Z,101693.03
2022-08-22T18:34:21.714Z,101691.16
2022-08-22T18:37:44.942Z,101692.09
2022-08-22T18:40:54.682Z,101692.97
2022-08-22T18:43:59.661Z,101696.50
2022-08-22T18:47:11.769Z,101696.50
2022-08-22T18:50:37.633Z,101701.88
2022-08-22T18:53:47.269Z,101699.19
2022-08-22T18:56:54.128Z,101706.38
2022-08-22T19:00:09.006Z,101711.66
2022-08-22T19:03:35.976Z,101714.31
2022-08-22T19:06:52.298Z,101711.66
2022-08-22T19:10:34.358Z,101709.84
2022-08-22T19:14:07.097Z,101710.69
2022-08-22T19:17:40.720Z,101721.41
2022-08-22T19:21:01.359Z,101725.91
2022-08-22T19:24:06.832Z,101722.34
2022-08-22T19:27:31.166Z,101725.91
2022-08-22T19:30:45.429Z,101716.91
2022-08-22T19:34:10.770Z,101725.91
2022-08-22T19:37:31.065Z,101722.28
2022-08-22T19:40:55.500Z,101716.91
2022-08-22T19:44:01.377Z,101710.69
2022-08-22T19:47:13.477Z,101721.41
2022-08-22T19:50:31.038Z,101706.28
2022-08-22T19:53:43.086Z,101709.75
2022-08-22T19:57:02.736Z,101705.28
2022-08-22T20:00:11.842Z,101706.13
2022-08-22T20:03:21.081Z,101714.16
2022-08-22T20:06:43.969Z,101713.31
2022-08-22T20:09:58.118Z,101708.81
2022-08-22T20:13:07.670Z,101708.81
2022-08-22T20:16:17.223Z,101705.19
2022-08-22T20:19:22.531Z,101708.81
2022-08-22T20:22:30.523Z,101698.97
2022-08-22T20:25:44.189Z,101704.31
2022-08-22T20:28:52.362Z,101708.81
2022-08-22T20:31:58.797Z,101708.81
2022-08-22T20:35:05.686Z,101713.31
2022-08-22T20:38:14.199Z,101711.47
2022-08-22T20:41:38.618Z,101715.03
2022-08-22T20:44:44.818Z,101726.63
2022-08-22T20:47:56.824Z,101723.84
2022-08-22T20:51:04.423Z,101730.09
2022-08-22T20:54:19.319Z,101718.50
2022-08-22T20:57:23.042Z,101714.09
2022-08-22T21:00:29.532Z,101715.91
2022-08-22T21:03:40.823Z,101722.13
2022-08-22T21:06:43.982Z,101719.47
2022-08-22T21:10:12.560Z,101728.34
2022-08-22T21:13:19.707Z,101716.78
2022-08-22T21:16:31.438Z,101717.63
2022-08-22T21:19:34.827Z,101710.56
2022-08-22T21:22:37.891Z,101722.97
2022-08-22T21:26:01.960Z,101714.94
2022-08-22T21:29:07.906Z,101713.16
2022-08-22T21:32:22.499Z,101708.66
2022-08-22T21:35:29.201Z,101713.09
2022-08-22T21:38:32.335Z,101710.41
2022-08-22T21:41:41.682Z,101716.63
2022-08-22T21:44:56.852Z,101716.63
2022-08-22T21:48:01.015Z,101720.25
2022-08-22T21:51:40.662Z,101723.81
2022-08-22T21:54:43.872Z,101722.94
2022-08-22T21:57:48.671Z,101730.09
2022-08-22T22:00:54.807Z,101722.94
2022-08-22T22:04:00.916Z,101733.63
2022-08-22T22:07:04.503Z,101729.22
2022-08-22T22:10:09.956Z,101725.59
2022-08-22T22:13:14.830Z,101730.97
2022-08-22T22:16:23.250Z,101722.06
2022-08-22T22:19:26.298Z,101719.38
2022-08-22T22:22:29.273Z,101729.22
2022-08-22T22:25:39.563Z,101727.50
2022-08-22T22:28:48.793Z,101721.19
2022-08-22T22:31:51.873Z,101721.19
2022-08-22T22:34:55.185Z,101730.16
2022-08-22T22:37:58.311Z,101731.97
2022-08-22T22:41:01.630Z,101727.50
2022-08-22T22:44:06.553Z,101730.22
2022-08-22T22:47:09.501Z,101719.50
2022-08-22T22:50:12.666Z,101719.47
2022-08-22T22:53:19.479Z,101718.66
2022-08-22T22:56:24.353Z,101720.38
2022-08-22T22:59:28.885Z,101716.84
2022-08-22T23:02:31.865Z,101724.88
2022-08-22T23:05:35.634Z,101721.25
2022-08-22T23:08:38.642Z,101724.88
2022-08-22T23:11:41.754Z,101709.69
2022-08-22T23:14:46.491Z,101708.81
2022-08-22T23:17:49.557Z,101709.75
2022-08-22T23:20:52.513Z,101702.59
2022-08-22T23:23:56.814Z,101705.31
2022-08-22T23:27:00.425Z,101708.00
2022-08-22T23:30:08.522Z,101708.00
2022-08-22T23:33:11.578Z,101704.53
2022-08-22T23:36:18.754Z,101705.50
2022-08-22T23:39:24.409Z,101700.13
2022-08-22T23:42:29.346Z,101697.47
2022-08-22T23:45:33.842Z,101700.13
2022-08-22T23:48:36.898Z,101704.63
2022-08-22T23:51:40.526Z,101702.91
2022-08-22T23:54:43.751Z,101704.69
2022-08-22T23:57:46.841Z,101703.81
